Airfield :
LOGIN :

Register | Disclaimer

   EN    FR    IT 

 










Legend :    VFR   Marginal VFR   IFR   Intensive IFR   Very Intensive IFR
Visi :
Ceiling :
>= 8 km
>= 3000ft
5 to 8 km
1000 to 3000 ft
1500m to 5 km
500 to 1000 ft
800 to 1500m
200 to 500 ft
< 800m
< 200 ft
Symbols :   Thunderstorms  Fog  Heavy snow  Heavy precipitations  Wind > 20 kt
SIGMETs :     Misc.  Thunderstorms  Icing  Turbulence  Mountain Waves  Volcanic Ashes







- Airport Elevation : 1000 ft
- IATA code : PEV


LHPP - Pécs Pogany

CURRENT METAR :
  • 220845Z 29011KT CAVOK 10/05 Q1017

EXPIRED METARs :
  • 220815Z 28012KT CAVOK 09/05 Q1016
  • 220745Z 30009KT CAVOK 08/04 Q1016
  • 220715Z 32008KT CAVOK 07/04 Q1016
  • 220645Z 31007KT CAVOK 06/04 Q1016
  • 220615Z 30009KT CAVOK 06/03 Q1016

TAF TAF LHPP
Valid from the 22 at 09:00 until the 22 at 18:00 UTC


220815Z 2209/2218 29010KT CAVOK
TEMPO 2212/2215 29011G21KT
No reported NOTAMs for that airfield.



MET'MAP, your aeronautical weather chart ! - Copyright ORBIFLY December 2007 - Disclaimer

ORBIFLY MET'MAP TEAM :

Programming & Development : Alexandra Zaïnal
Concept & Development : Baudouin d'Aumeries
Co-Development & Prog : Marc-Olivier Méhu
Technical & hardware support : Manuel Goepfert

Contact : metmap@orbifly.com




SOURCES & CREDITS :

   NOAA